Time;durP1;ratioP1;P1;durP2;ratioP2;P2;SDS_P1;SDS_P2;PMS_P1;PMS_P2;Temp;Humidity;BMP_temperature;BMP_pressure;BME280_temperature;BME280_humidity;BME280_pressure;Samples;Min_cycle;Max_cycle;Signal;HPM_P1;HPM_P2
2024/03/18 00:00:17;;;;;;;;;;;;;;;;;;5025043;28;5147;-61
2024/03/18 00:02:46;;;;;;;;;;;;;;;;;;5028232;28;5153;-61
2024/03/18 00:05:12;;;;;;;;;;;;;;;;;;5028223;28;5138;-61
2024/03/18 00:07:38;;;;;;;;;;;;;;;;;;5028967;28;3275;-61
2024/03/18 00:10:04;;;;;;;;;;;;;;;;;;5054946;28;4952;-61
2024/03/18 00:12:29;;;;;;;;;;;;;;;;;;5058363;28;4663;-61
2024/03/18 00:14:54;;;;;;;;;;;;;;;;;;5053458;28;5170;-61
2024/03/18 00:17:20;;;;;;;;;;;;;;;;;;5055526;28;4510;-62
2024/03/18 00:19:45;;;;;;;;;;;;;;;;;;5064268;28;5760;-60
2024/03/18 00:22:11;;;;;;;;;;;;;;;;;;5050092;28;3259;-61
2024/03/18 00:24:36;;;;;;;;;;;;;;;;;;5049691;28;5060;-61
2024/03/18 00:27:01;;;;;;;;;;;;;;;;;;5058985;28;4951;-61
2024/03/18 00:29:27;;;;;;;;;;;;;;;;;;5046284;28;5250;-61
2024/03/18 00:31:52;;;;;;;;;;;;;;;;;;5052744;28;4555;-61
2024/03/18 00:34:18;;;;;;;;;;;;;;;;;;5058219;28;1235;-61
2024/03/18 00:36:44;;;;;;;;;;;;;;;;;;5044213;28;4434;-60
2024/03/18 00:39:09;;;;;;;;;;;;;;;;;;5051787;28;5015;-60
2024/03/18 00:41:46;;;;;;;;;;;;;;;;;;5051748;28;5087;-61
2024/03/18 00:44:14;;;;;;;;;;;;;;;;;;5046796;28;5070;-61
2024/03/18 00:46:41;;;;;;;;;;;;;;;;;;5059839;28;1154;-61
2024/03/18 00:49:06;;;;;;;;;;;;;;;;;;5047710;28;5065;-60
2024/03/18 00:51:32;;;;;;;;;;;;;;;;;;5056867;28;5847;-61
2024/03/18 00:53:57;;;;;;;;;;;;;;;;;;5054371;28;5177;-62
2024/03/18 00:56:22;;;;;;;;;;;;;;;;;;5050153;28;5139;-61
2024/03/18 00:58:48;;;;;;;;;;;;;;;;;;5040894;28;4902;-61
2024/03/18 01:01:13;;;;;;;;;;;;;;;;;;5051403;28;3669;-62
2024/03/18 01:03:38;;;;;;;;;;;;;;;;;;5032996;28;4944;-62
2024/03/18 01:06:04;;;;;;;;;;;;;;;;;;5057969;28;5238;-61
2024/03/18 01:08:30;;;;;;;;;;;;;;;;;;5048713;28;5219;-62
2024/03/18 01:10:55;;;;;;;;;;;;;;;;;;5041342;28;5113;-61
2024/03/18 01:13:21;;;;;;;;;;;;;;;;;;5051844;28;3330;-60
2024/03/18 01:15:46;;;;;;;;;;;;;;;;;;5048369;28;5040;-61
2024/03/18 01:18:12;;;;;;;;;;;;;;;;;;5046535;28;4688;-62
2024/03/18 01:20:38;;;;;;;;;;;;;;;;;;5049304;28;5144;-62
2024/03/18 01:23:04;;;;;;;;;;;;;;;;;;5047635;28;5231;-62
2024/03/18 01:25:29;;;;;;;;;;;;;;;;;;5055819;28;3202;-61
2024/03/18 01:27:55;;;;;;;;;;;;;;;;;;5046204;28;4871;-62
2024/03/18 01:30:20;;;;;;;;;;;;;;;;;;5044527;28;4971;-61
2024/03/18 01:32:46;;;;;;;;;;;;;;;;;;5042331;28;5053;-62
2024/03/18 01:35:15;;;;;;;;;;;;;;;;;;5043251;28;5808;-62
2024/03/18 01:37:40;;;;;;;;;;;;;;;;;;5047902;28;3415;-62
2024/03/18 01:40:10;;;;;;;;;;;;;;;;;;5045798;28;4496;-62
2024/03/18 01:42:36;;;;;;;;;;;;;;;;;;5052557;28;5326;-62
2024/03/18 01:45:01;;;;;;;;;;;;;;;;;;5054897;28;4843;-61
2024/03/18 01:47:27;;;;;;;;;;;;;;;;;;5040641;28;5281;-62
2024/03/18 01:49:52;;;;;;;;;;;;;;;;;;5047338;28;5015;-62
2024/03/18 01:52:18;;;;;;;;;;;;;;;;;;5042415;28;3519;-62
2024/03/18 01:54:43;;;;;;;;;;;;;;;;;;5047043;28;5238;-61
2024/03/18 01:57:09;;;;;;;;;;;;;;;;;;5040700;28;5142;-62
2024/03/18 01:59:34;;;;;;;;;;;;;;;;;;5044550;28;5064;-62
2024/03/18 02:02:00;;;;;;;;;;;;;;;;;;5041495;28;5129;-61
2024/03/18 02:04:26;;;;;;;;;;;;;;;;;;5050896;28;1073;-62
2024/03/18 02:06:51;;;;;;;;;;;;;;;;;;5048175;28;5717;-62
2024/03/18 02:09:18;;;;;;;;;;;;;;;;;;5041759;28;5139;-62
2024/03/18 02:11:43;;;;;;;;;;;;;;;;;;5054432;28;5003;-62
2024/03/18 02:14:12;;;;;;;;;;;;;;;;;;5060635;28;5080;-62
2024/03/18 02:16:37;;;;;;;;;;;;;;;;;;5038435;28;3498;-62
2024/03/18 02:19:04;;;;;;;;;;;;;;;;;;5049327;28;4487;-62
2024/03/18 02:21:29;;;;;;;;;;;;;;;;;;5036646;28;4918;-62
2024/03/18 02:23:54;;;;;;;;;;;;;;;;;;5038057;28;4710;-62
2024/03/18 02:26:20;;;;;;;;;;;;;;;;;;5036141;28;5126;-62
2024/03/18 02:28:46;;;;;;;;;;;;;;;;;;5045217;28;3410;-62
2024/03/18 02:31:12;;;;;;;;;;;;;;;;;;5053110;28;5149;-62
2024/03/18 02:33:37;;;;;;;;;;;;;;;;;;5057116;28;5036;-62
2024/03/18 02:36:03;;;;;;;;;;;;;;;;;;5039864;28;5987;-62
2024/03/18 02:38:28;;;;;;;;;;;;;;;;;;5049663;28;5169;-62
2024/03/18 02:40:54;;;;;;;;;;;;;;;;;;5059920;28;5118;-62
2024/03/18 02:43:19;;;;;;;;;;;;;;;;;;5053307;28;1092;-61
2024/03/18 02:45:44;;;;;;;;;;;;;;;;;;5054148;28;4411;-62
2024/03/18 02:48:10;;;;;;;;;;;;;;;;;;5051932;28;5016;-62
2024/03/18 02:50:35;;;;;;;;;;;;;;;;;;5054738;28;5118;-62
2024/03/18 02:53:01;;;;;;;;;;;;;;;;;;5044246;28;4573;-61
2024/03/18 02:55:26;;;;;;;;;;;;;;;;;;5061761;28;1230;-62
2024/03/18 02:57:52;;;;;;;;;;;;;;;;;;5049133;28;5275;-62
2024/03/18 03:00:17;;;;;;;;;;;;;;;;;;5045779;28;5092;-62
2024/03/18 03:02:42;;;;;;;;;;;;;;;;;;5054451;28;4965;-62
2024/03/18 03:05:09;;;;;;;;;;;;;;;;;;5036293;28;4937;-62
2024/03/18 03:07:34;;;;;;;;;;;;;;;;;;5027669;28;3646;-62
2024/03/18 03:10:03;;;;;;;;;;;;;;;;;;5030441;28;4909;-62
2024/03/18 03:12:28;;;;;;;;;;;;;;;;;;5015923;28;5296;-62
2024/03/18 03:14:54;;;;;;;;;;;;;;;;;;5028972;28;5162;-62
2024/03/18 03:17:19;;;;;;;;;;;;;;;;;;5034540;28;4688;-62
2024/03/18 03:19:44;;;;;;;;;;;;;;;;;;5044388;28;3252;-61
2024/03/18 03:22:11;;;;;;;;;;;;;;;;;;5030440;28;4858;-62
2024/03/18 03:24:36;;;;;;;;;;;;;;;;;;5031616;28;4622;-62
2024/03/18 03:27:02;;;;;;;;;;;;;;;;;;5028704;28;4992;-62
2024/03/18 03:29:27;;;;;;;;;;;;;;;;;;5035155;28;4535;-62
2024/03/18 03:31:52;;;;;;;;;;;;;;;;;;5028903;28;5107;-62
2024/03/18 03:34:18;;;;;;;;;;;;;;;;;;5027867;28;3437;-62
2024/03/18 03:36:44;;;;;;;;;;;;;;;;;;5027858;28;5211;-61
2024/03/18 03:39:11;;;;;;;;;;;;;;;;;;5044517;28;5036;-61
2024/03/18 03:41:36;;;;;;;;;;;;;;;;;;5039716;28;4678;-62
2024/03/18 03:44:01;;;;;;;;;;;;;;;;;;5034016;28;5187;-62
2024/03/18 03:46:27;;;;;;;;;;;;;;;;;;5031405;28;3226;-61
2024/03/18 03:48:52;;;;;;;;;;;;;;;;;;5035751;28;4863;-61
2024/03/18 03:51:17;;;;;;;;;;;;;;;;;;5028019;28;5918;-60
2024/03/18 03:53:43;;;;;;;;;;;;;;;;;;5013732;28;5071;-61
2024/03/18 03:56:08;;;;;;;;;;;;;;;;;;5040021;28;5085;-61
2024/03/18 03:58:34;;;;;;;;;;;;;;;;;;5038701;28;1691;-61
2024/03/18 04:00:59;;;;;;;;;;;;;;;;;;5036520;28;5086;-59
2024/03/18 04:03:25;;;;;;;;;;;;;;;;;;5024847;28;5183;-61
2024/03/18 04:05:54;;;;;;;;;;;;;;;;;;5018925;28;4943;-61
2024/03/18 04:08:19;;;;;;;;;;;;;;;;;;5034082;28;5061;-61
2024/03/18 04:10:45;;;;;;;;;;;;;;;;;;5044618;28;3276;-61
2024/03/18 04:13:10;;;;;;;;;;;;;;;;;;5051880;28;5032;-61
2024/03/18 04:15:36;;;;;;;;;;;;;;;;;;5052361;28;5105;-61
2024/03/18 04:18:03;;;;;;;;;;;;;;;;;;5039152;28;4614;-61
2024/03/18 04:20:29;;;;;;;;;;;;;;;;;;5040349;28;5006;-61
2024/03/18 04:22:55;;;;;;;;;;;;;;;;;;5045629;28;5093;-61
2024/03/18 04:25:23;;;;;;;;;;;;;;;;;;5044340;28;3309;-61
2024/03/18 04:27:48;;;;;;;;;;;;;;;;;;5020169;28;4718;-61
2024/03/18 04:30:14;;;;;;;;;;;;;;;;;;5038686;28;5012;-60
2024/03/18 04:32:49;;;;;;;;;;;;;;;;;;5039917;28;5156;-61
2024/03/18 04:35:14;;;;;;;;;;;;;;;;;;5037567;28;4668;-61
2024/03/18 04:37:46;;;;;;;;;;;;;;;;;;5041987;28;3739;-61
2024/03/18 04:40:14;;;;;;;;;;;;;;;;;;5044113;28;4960;-61
2024/03/18 04:42:39;;;;;;;;;;;;;;;;;;5042426;28;4471;-61
2024/03/18 04:45:05;;;;;;;;;;;;;;;;;;5046088;28;4905;-61
2024/03/18 04:47:30;;;;;;;;;;;;;;;;;;5044631;28;4685;-61
2024/03/18 04:49:56;;;;;;;;;;;;;;;;;;5047080;28;4539;-61
2024/03/18 04:52:21;;;;;;;;;;;;;;;;;;5051803;28;1989;-62
2024/03/18 04:54:47;;;;;;;;;;;;;;;;;;5070911;28;4486;-62
2024/03/18 04:57:12;;;;;;;;;;;;;;;;;;5050171;28;5191;-61
2024/03/18 04:59:39;;;;;;;;;;;;;;;;;;5045217;28;4631;-60
2024/03/18 05:02:05;;;;;;;;;;;;;;;;;;5048653;28;5144;-61
2024/03/18 05:04:31;;;;;;;;;;;;;;;;;;5046639;28;3266;-60
2024/03/18 05:06:56;;;;;;;;;;;;;;;;;;5049878;28;5129;-60
2024/03/18 05:09:21;;;;;;;;;;;;;;;;;;5033091;28;5071;-62
2024/03/18 05:11:47;;;;;;;;;;;;;;;;;;5026795;28;5100;-62
2024/03/18 05:14:12;;;;;;;;;;;;;;;;;;5027311;28;4472;-65
2024/03/18 05:16:39;;;;;;;;;;;;;;;;;;5025464;28;3300;-62
2024/03/18 05:19:05;;;;;;;;;;;;;;;;;;5020338;28;5112;-61
2024/03/18 05:21:31;;;;;;;;;;;;;;;;;;5017992;28;5880;-63
2024/03/18 05:23:56;;;;;;;;;;;;;;;;;;5020449;28;5059;-62
2024/03/18 05:26:22;;;;;;;;;;;;;;;;;;5017299;28;5192;-61
2024/03/18 05:28:47;;;;;;;;;;;;;;;;;;5017968;28;5282;-61
2024/03/18 05:31:12;;;;;;;;;;;;;;;;;;5022274;28;3867;-62
2024/03/18 05:33:38;;;;;;;;;;;;;;;;;;5021001;28;5072;-61
2024/03/18 05:36:03;;;;;;;;;;;;;;;;;;5016051;28;4699;-60
2024/03/18 05:38:29;;;;;;;;;;;;;;;;;;5022172;28;4911;-61
2024/03/18 05:40:54;;;;;;;;;;;;;;;;;;5024421;28;5090;-61
2024/03/18 05:43:19;;;;;;;;;;;;;;;;;;5020314;28;3414;-61
2024/03/18 05:45:45;;;;;;;;;;;;;;;;;;5020262;28;4554;-60
2024/03/18 05:48:11;;;;;;;;;;;;;;;;;;5018044;28;5161;-61
2024/03/18 05:50:36;;;;;;;;;;;;;;;;;;5023813;28;5360;-61
2024/03/18 05:53:02;;;;;;;;;;;;;;;;;;5024428;28;5172;-60
2024/03/18 05:55:27;;;;;;;;;;;;;;;;;;5022891;28;3278;-61
2024/03/18 05:57:57;;;;;;;;;;;;;;;;;;5014961;28;5000;-61
2024/03/18 06:00:22;;;;;;;;;;;;;;;;;;5023927;28;4656;-61
2024/03/18 06:02:48;;;;;;;;;;;;;;;;;;5019022;28;5103;-61
2024/03/18 06:05:13;;;;;;;;;;;;;;;;;;5026000;28;5128;-61
2024/03/18 06:07:39;;;;;;;;;;;;;;;;;;5029097;28;3279;-62
2024/03/18 06:10:04;;;;;;;;;;;;;;;;;;5039914;28;4996;-61
2024/03/18 06:12:30;;;;;;;;;;;;;;;;;;5051473;28;5091;-62
2024/03/18 06:14:57;;;;;;;;;;;;;;;;;;5037356;28;4625;-61
2024/03/18 06:17:22;;;;;;;;;;;;;;;;;;5054345;28;4974;-61
2024/03/18 06:19:49;;;;;;;;;;;;;;;;;;5053105;28;4497;-61
2024/03/18 06:22:20;;;;;;;;;;;;;;;;;;5057897;28;2214;-62
2024/03/18 06:27:30;;;;;;;;;;;;;;;;;;5043219;28;4458;-62
2024/03/18 06:29:55;;;;;;;;;;;;;;;;;;5048672;28;4536;-62
2024/03/18 06:32:21;;;;;;;;;;;;;;;;;;5051647;28;4574;-62
2024/03/18 06:34:46;;;;;;;;;;;;;;;;;;5060033;28;4930;-61
2024/03/18 06:37:11;;;;;;;;;;;;;;;;;;5055890;28;3304;-62
2024/03/18 06:39:37;;;;;;;;;;;;;;;;;;5062149;28;4441;-61
2024/03/18 06:42:04;;;;;;;;;;;;;;;;;;5039407;28;4717;-61
2024/03/18 06:44:30;;;;;;;;;;;;;;;;;;5042579;28;5003;-61
2024/03/18 06:46:56;;;;;;;;;;;;;;;;;;5030584;28;5112;-61
2024/03/18 06:49:21;;;;;;;;;;;;;;;;;;5044356;28;3859;-61
2024/03/18 06:51:47;;;;;;;;;;;;;;;;;;5026519;28;4984;-62
2024/03/18 06:54:13;;;;;;;;;;;;;;;;;;5050230;28;4857;-61
2024/03/18 06:56:38;;;;;;;;;;;;;;;;;;5029734;28;4759;-61
2024/03/18 06:59:04;;;;;;;;;;;;;;;;;;5043879;28;5153;-61
2024/03/18 07:01:29;;;;;;;;;;;;;;;;;;5042399;28;3375;-72
2024/03/18 07:03:54;;;;;;;;;;;;;;;;;;5050460;28;5374;-69
2024/03/18 07:06:20;;;;;;;;;;;;;;;;;;5024264;28;5120;-58
2024/03/18 07:08:46;;;;;;;;;;;;;;;;;;5024362;28;4768;-58
2024/03/18 07:11:11;;;;;;;;;;;;;;;;;;5010664;28;5203;-59
2024/03/18 07:13:38;;;;;;;;;;;;;;;;;;5024361;28;3296;-58
2024/03/18 07:16:04;;;;;;;;;;;;;;;;;;5029007;28;4827;-57
2024/03/18 07:18:29;;;;;;;;;;;;;;;;;;5044937;28;5208;-57
2024/03/18 07:20:55;;;;;;;;;;;;;;;;;;5026881;28;4609;-57
2024/03/18 07:23:22;;;;;;;;;;;;;;;;;;5041426;28;5344;-58
2024/03/18 07:25:47;;;;;;;;;;;;;;;;;;5026404;28;5102;-60
2024/03/18 07:28:13;;;;;;;;;;;;;;;;;;5025996;28;3936;-65
2024/03/18 07:30:38;;;;;;;;;;;;;;;;;;5042982;28;5051;-64
2024/03/18 07:33:04;;;;;;;;;;;;;;;;;;5023951;28;4743;-66
2024/03/18 07:35:30;;;;;;;;;;;;;;;;;;5026310;28;4502;-65
2024/03/18 07:37:55;;;;;;;;;;;;;;;;;;5028669;28;4784;-64
2024/03/18 07:40:20;;;;;;;;;;;;;;;;;;5028489;28;3386;-69
2024/03/18 07:42:46;;;;;;;;;;;;;;;;;;5027141;28;4985;-63
2024/03/18 07:45:11;;;;;;;;;;;;;;;;;;5044080;28;4628;-64
2024/03/18 07:47:37;;;;;;;;;;;;;;;;;;5031651;28;5127;-64
2024/03/18 07:50:03;;;;;;;;;;;;;;;;;;5031987;28;5127;-64
2024/03/18 07:52:29;;;;;;;;;;;;;;;;;;5032136;28;2035;-65
2024/03/18 07:54:54;;;;;;;;;;;;;;;;;;5027050;28;5094;-64
2024/03/18 07:57:20;;;;;;;;;;;;;;;;;;5028225;28;5065;-65
2024/03/18 07:59:45;;;;;;;;;;;;;;;;;;5026252;28;5306;-64
2024/03/18 08:02:10;;;;;;;;;;;;;;;;;;5027932;28;4930;-64
2024/03/18 08:04:36;;;;;;;;;;;;;;;;;;5031581;28;2944;-65
2024/03/18 08:07:02;;;;;;;;;;;;;;;;;;5029992;28;4944;-64
2024/03/18 08:09:27;;;;;;;;;;;;;;;;;;5008939;28;5118;-62
2024/03/18 08:11:52;;;;;;;;;;;;;;;;;;5026866;28;4738;-64
2024/03/18 08:14:18;;;;;;;;;;;;;;;;;;5028451;28;5299;-64
2024/03/18 08:16:44;;;;;;;;;;;;;;;;;;5032473;28;1169;-66
2024/03/18 08:19:09;;;;;;;;;;;;;;;;;;5029399;28;4642;-65
2024/03/18 08:21:35;;;;;;;;;;;;;;;;;;5031513;28;5088;-64
2024/03/18 08:24:03;;;;;;;;;;;;;;;;;;5042341;28;5168;-64
2024/03/18 08:26:28;;;;;;;;;;;;;;;;;;5044482;28;4574;-64
2024/03/18 08:28:54;;;;;;;;;;;;;;;;;;5028343;28;4972;-65
2024/03/18 08:31:19;;;;;;;;;;;;;;;;;;5030029;28;3331;-63
2024/03/18 08:33:44;;;;;;;;;;;;;;;;;;5029931;28;5076;-62
2024/03/18 08:36:10;;;;;;;;;;;;;;;;;;5028855;28;5294;-62
2024/03/18 08:38:35;;;;;;;;;;;;;;;;;;5028537;28;4566;-61
2024/03/18 08:41:00;;;;;;;;;;;;;;;;;;5013286;28;5192;-62
2024/03/18 08:43:26;;;;;;;;;;;;;;;;;;5026052;28;3335;-64
2024/03/18 08:45:55;;;;;;;;;;;;;;;;;;5026890;28;5050;-67
2024/03/18 08:48:20;;;;;;;;;;;;;;;;;;5027774;28;5160;-53
2024/03/18 08:50:45;;;;;;;;;;;;;;;;;;5029592;28;4678;-65
2024/03/18 08:53:12;;;;;;;;;;;;;;;;;;5026210;28;5120;-67
2024/03/18 08:55:37;;;;;;;;;;;;;;;;;;5026323;28;3327;-64
2024/03/18 08:58:03;;;;;;;;;;;;;;;;;;5008077;28;4555;-65
2024/03/18 09:00:28;;;;;;;;;;;;;;;;;;5029176;28;5073;-64
2024/03/18 09:02:54;;;;;;;;;;;;;;;;;;5028656;28;5171;-64
2024/03/18 09:05:19;;;;;;;;;;;;;;;;;;5026735;28;5309;-61
2024/03/18 09:07:45;;;;;;;;;;;;;;;;;;5030373;28;3229;-60
2024/03/18 09:10:12;;;;;;;;;;;;;;;;;;5029531;28;5452;-61
2024/03/18 09:12:38;;;;;;;;;;;;;;;;;;5030396;28;5125;-60
2024/03/18 09:15:05;;;;;;;;;;;;;;;;;;5030364;28;5008;-60
2024/03/18 09:17:30;;;;;;;;;;;;;;;;;;5029318;28;4727;-61
2024/03/18 09:19:55;;;;;;;;;;;;;;;;;;5031061;28;4975;-62
2024/03/18 09:22:21;;;;;;;;;;;;;;;;;;5031627;28;3242;-60
2024/03/18 09:24:46;;;;;;;;;;;;;;;;;;5027387;28;5063;-63
2024/03/18 09:27:12;;;;;;;;;;;;;;;;;;5027825;28;5066;-63
2024/03/18 09:29:37;;;;;;;;;;;;;;;;;;5028623;28;5022;-63
2024/03/18 09:32:03;;;;;;;;;;;;;;;;;;5027217;28;5097;-63
2024/03/18 09:34:29;;;;;;;;;;;;;;;;;;5030320;28;3292;-62
2024/03/18 09:36:54;;;;;;;;;;;;;;;;;;5027371;28;4773;-60
2024/03/18 09:39:20;;;;;;;;;;;;;;;;;;5028591;28;5178;-63
2024/03/18 09:41:48;;;;;;;;;;;;;;;;;;5026625;28;5308;-62
2024/03/18 09:44:13;;;;;;;;;;;;;;;;;;5042033;28;4726;-63
2024/03/18 09:46:39;;;;;;;;;;;;;;;;;;5027979;28;3271;-61
2024/03/18 09:49:06;;;;;;;;;;;;;;;;;;5021568;28;4672;-61
2024/03/18 09:51:32;;;;;;;;;;;;;;;;;;5038967;28;4729;-64
2024/03/18 09:53:57;;;;;;;;;;;;;;;;;;5001165;28;4559;-63
2024/03/18 09:56:22;;;;;;;;;;;;;;;;;;5022088;28;5117;-63
2024/03/18 09:58:48;;;;;;;;;;;;;;;;;;5025018;28;4995;-64
2024/03/18 10:01:13;;;;;;;;;;;;;;;;;;5022628;28;3325;-62
2024/03/18 10:03:40;;;;;;;;;;;;;;;;;;5021886;28;5077;-64
2024/03/18 10:06:05;;;;;;;;;;;;;;;;;;5024602;28;5208;-63
2024/03/18 10:08:31;;;;;;;;;;;;;;;;;;5021057;28;5145;-64
2024/03/18 10:10:57;;;;;;;;;;;;;;;;;;5021780;28;5203;-63
2024/03/18 10:13:24;;;;;;;;;;;;;;;;;;5021099;28;3294;-60
2024/03/18 10:15:50;;;;;;;;;;;;;;;;;;5023122;28;5080;-60
2024/03/18 10:18:15;;;;;;;;;;;;;;;;;;5021757;28;5023;-61
2024/03/18 10:20:41;;;;;;;;;;;;;;;;;;5021236;28;4992;-59
2024/03/18 10:23:09;;;;;;;;;;;;;;;;;;5022342;28;5039;-59
2024/03/18 10:25:34;;;;;;;;;;;;;;;;;;5022828;28;3419;-60
2024/03/18 10:28:03;;;;;;;;;;;;;;;;;;5017100;28;4692;-60
2024/03/18 10:30:30;;;;;;;;;;;;;;;;;;5020364;28;5109;-60
2024/03/18 10:32:57;;;;;;;;;;;;;;;;;;5019641;28;4569;-60
2024/03/18 10:35:26;;;;;;;;;;;;;;;;;;5033895;28;5870;-61
2024/03/18 10:38:11;;;;;;;;;;;;;;;;;;5017828;28;4820;-61
2024/03/18 10:40:38;;;;;;;;;;;;;;;;;;5021970;28;3271;-59
2024/03/18 10:43:03;;;;;;;;;;;;;;;;;;5019031;28;5192;-60
2024/03/18 10:45:31;;;;;;;;;;;;;;;;;;5022149;28;4689;-62
2024/03/18 10:47:56;;;;;;;;;;;;;;;;;;5021959;28;4679;-61
2024/03/18 10:50:22;;;;;;;;;;;;;;;;;;5023348;28;5206;-61
2024/03/18 10:52:48;;;;;;;;;;;;;;;;;;5019221;28;5104;-60
2024/03/18 10:55:17;;;;;;;;;;;;;;;;;;5050451;28;3310;-60
2024/03/18 10:57:47;;;;;;;;;;;;;;;;;;5026248;28;5115;-61
2024/03/18 11:00:12;;;;;;;;;;;;;;;;;;5027254;28;4553;-59
2024/03/18 11:02:39;;;;;;;;;;;;;;;;;;5043079;28;4455;-57
2024/03/18 11:05:06;;;;;;;;;;;;;;;;;;5025024;28;4920;-67
2024/03/18 11:07:34;;;;;;;;;;;;;;;;;;5028301;28;3316;-60
2024/03/18 11:10:09;;;;;;;;;;;;;;;;;;5010469;28;5018;-62
2024/03/18 11:12:34;;;;;;;;;;;;;;;;;;5020303;28;5242;-60
2024/03/18 11:15:06;;;;;;;;;;;;;;;;;;5023887;28;5091;-62
2024/03/18 11:17:31;;;;;;;;;;;;;;;;;;5026158;28;5018;-62
2024/03/18 11:19:57;;;;;;;;;;;;;;;;;;5027907;28;5067;-60
2024/03/18 11:22:23;;;;;;;;;;;;;;;;;;5031087;28;1179;-61
2024/03/18 11:24:50;;;;;;;;;;;;;;;;;;5047040;28;4905;-62
2024/03/18 11:27:16;;;;;;;;;;;;;;;;;;5046762;28;5091;-61
2024/03/18 11:29:43;;;;;;;;;;;;;;;;;;5031038;28;5096;-63
2024/03/18 11:32:09;;;;;;;;;;;;;;;;;;5028977;28;5095;-61
2024/03/18 11:34:36;;;;;;;;;;;;;;;;;;5030315;28;1031;-60
2024/03/18 11:37:01;;;;;;;;;;;;;;;;;;5030631;28;4464;-62
2024/03/18 11:39:27;;;;;;;;;;;;;;;;;;5047713;28;5015;-62
2024/03/18 11:42:03;;;;;;;;;;;;;;;;;;5031443;28;5202;-66
2024/03/18 11:44:28;;;;;;;;;;;;;;;;;;5013046;28;4753;-61
2024/03/18 11:47:00;;;;;;;;;;;;;;;;;;5028480;28;5242;-63
2024/03/18 11:49:27;;;;;;;;;;;;;;;;;;5031078;28;3371;-61
2024/03/18 11:51:52;;;;;;;;;;;;;;;;;;5030846;28;4560;-61
2024/03/18 11:54:17;;;;;;;;;;;;;;;;;;5028598;28;5041;-61
2024/03/18 11:56:43;;;;;;;;;;;;;;;;;;5029756;28;5146;-61
2024/03/18 11:59:12;;;;;;;;;;;;;;;;;;5031080;28;4997;-63
2024/03/18 12:01:38;;;;;;;;;;;;;;;;;;5020588;28;3177;-64
2024/03/18 12:04:04;;;;;;;;;;;;;;;;;;5029820;28;5069;-65
2024/03/18 12:06:35;;;;;;;;;;;;;;;;;;5028794;28;4858;-64
2024/03/18 12:09:01;;;;;;;;;;;;;;;;;;5026833;28;5217;-66
2024/03/18 12:11:26;;;;;;;;;;;;;;;;;;5046531;28;5434;-64
2024/03/18 12:13:52;;;;;;;;;;;;;;;;;;5031287;28;5176;-64
2024/03/18 12:16:18;;;;;;;;;;;;;;;;;;5044651;28;3292;-67
2024/03/18 12:18:43;;;;;;;;;;;;;;;;;;5043571;28;5092;-68
2024/03/18 12:21:10;;;;;;;;;;;;;;;;;;5013659;28;5421;-66
2024/03/18 12:29:03;;;;;;;;;;;;;;;;;;5029424;28;5575;-62
2024/03/18 12:31:36;;;;;;;;;;;;;;;;;;5028669;28;3271;-63
2024/03/18 12:34:02;;;;;;;;;;;;;;;;;;5030462;28;5253;-63
2024/03/18 12:36:28;;;;;;;;;;;;;;;;;;5028846;28;4973;-61
2024/03/18 12:38:58;;;;;;;;;;;;;;;;;;5029309;28;4556;-62
2024/03/18 12:41:23;;;;;;;;;;;;;;;;;;5024906;28;5135;-62
2024/03/18 12:43:49;;;;;;;;;;;;;;;;;;5022290;28;4529;-62
2024/03/18 12:46:16;;;;;;;;;;;;;;;;;;5026038;28;1119;-61
2024/03/18 12:48:41;;;;;;;;;;;;;;;;;;5022887;28;5230;-62
2024/03/18 12:51:07;;;;;;;;;;;;;;;;;;5023440;28;5103;-62
2024/03/18 12:53:33;;;;;;;;;;;;;;;;;;5022668;28;4485;-64
2024/03/18 12:55:58;;;;;;;;;;;;;;;;;;5023260;28;5113;-63
2024/03/18 12:58:24;;;;;;;;;;;;;;;;;;5023586;28;3252;-66
2024/03/18 13:00:49;;;;;;;;;;;;;;;;;;5024067;28;4622;-63
2024/03/18 13:03:18;;;;;;;;;;;;;;;;;;5023138;28;4735;-66
2024/03/18 13:05:43;;;;;;;;;;;;;;;;;;5025650;28;4481;-67
2024/03/18 13:08:13;;;;;;;;;;;;;;;;;;5025640;28;5048;-64
2024/03/18 13:10:40;;;;;;;;;;;;;;;;;;5024919;28;1139;-63
2024/03/18 13:13:07;;;;;;;;;;;;;;;;;;5022332;28;4873;-64
2024/03/18 13:15:35;;;;;;;;;;;;;;;;;;5025539;28;5110;-64
2024/03/18 13:18:01;;;;;;;;;;;;;;;;;;5022621;28;5113;-66
2024/03/18 13:20:27;;;;;;;;;;;;;;;;;;5024132;28;5087;-65
2024/03/18 13:22:52;;;;;;;;;;;;;;;;;;5024841;28;5042;-65
2024/03/18 13:25:18;;;;;;;;;;;;;;;;;;5022779;28;1249;-65
2024/03/18 13:27:43;;;;;;;;;;;;;;;;;;5023099;28;4885;-64
2024/03/18 13:30:10;;;;;;;;;;;;;;;;;;5006422;28;5065;-65
2024/03/18 13:32:36;;;;;;;;;;;;;;;;;;5022803;28;4686;-65
2024/03/18 13:35:01;;;;;;;;;;;;;;;;;;5022244;28;5128;-65
2024/03/18 13:37:29;;;;;;;;;;;;;;;;;;5013760;28;1252;-64
2024/03/18 13:39:55;;;;;;;;;;;;;;;;;;5023974;28;5115;-67
2024/03/18 13:42:20;;;;;;;;;;;;;;;;;;5024575;28;5173;-59
2024/03/18 13:44:46;;;;;;;;;;;;;;;;;;5020682;28;5023;-57
2024/03/18 13:47:12;;;;;;;;;;;;;;;;;;5022833;28;5122;-67
2024/03/18 13:49:37;;;;;;;;;;;;;;;;;;5023007;28;3320;-67
2024/03/18 13:52:03;;;;;;;;;;;;;;;;;;5024219;28;4488;-66
2024/03/18 13:54:28;;;;;;;;;;;;;;;;;;5021599;28;4939;-64
2024/03/18 13:56:54;;;;;;;;;;;;;;;;;;5025084;28;5113;-68
2024/03/18 13:59:20;;;;;;;;;;;;;;;;;;5038598;28;4666;-65
2024/03/18 14:01:45;;;;;;;;;;;;;;;;;;5025846;28;3264;-64
2024/03/18 14:04:11;;;;;;;;;;;;;;;;;;5021805;28;4356;-68
2024/03/18 14:06:36;;;;;;;;;;;;;;;;;;5024661;28;5421;-66
2024/03/18 14:09:03;;;;;;;;;;;;;;;;;;5021499;28;5121;-64
2024/03/18 14:11:29;;;;;;;;;;;;;;;;;;5022599;28;5054;-70
2024/03/18 14:13:55;;;;;;;;;;;;;;;;;;5022128;28;4906;-63
2024/03/18 14:16:21;;;;;;;;;;;;;;;;;;5025358;28;1238;-63
2024/03/18 14:18:46;;;;;;;;;;;;;;;;;;5023044;28;5158;-65
2024/03/18 14:21:12;;;;;;;;;;;;;;;;;;5023196;28;5146;-66
2024/03/18 14:23:37;;;;;;;;;;;;;;;;;;5021796;28;5268;-63
2024/03/18 14:26:02;;;;;;;;;;;;;;;;;;5022648;28;5170;-64
2024/03/18 14:28:28;;;;;;;;;;;;;;;;;;5023435;28;1401;-63
2024/03/18 14:30:53;;;;;;;;;;;;;;;;;;5023816;28;5056;-62
2024/03/18 14:33:18;;;;;;;;;;;;;;;;;;5036570;28;5016;-63
2024/03/18 14:35:44;;;;;;;;;;;;;;;;;;5023117;28;5202;-62
2024/03/18 14:38:09;;;;;;;;;;;;;;;;;;5022386;28;4645;-63
2024/03/18 14:40:34;;;;;;;;;;;;;;;;;;5022908;28;3392;-64
2024/03/18 14:43:00;;;;;;;;;;;;;;;;;;5023413;28;5151;-66
2024/03/18 14:45:27;;;;;;;;;;;;;;;;;;5022048;28;4897;-64
2024/03/18 14:47:54;;;;;;;;;;;;;;;;;;5020565;28;4474;-66
2024/03/18 14:50:19;;;;;;;;;;;;;;;;;;5023968;28;5056;-63
2024/03/18 14:52:45;;;;;;;;;;;;;;;;;;5023045;28;2383;-64
2024/03/18 14:55:15;;;;;;;;;;;;;;;;;;5021448;28;4936;-62
2024/03/18 14:57:41;;;;;;;;;;;;;;;;;;5027239;28;4908;-62
2024/03/18 15:00:09;;;;;;;;;;;;;;;;;;5028562;28;5292;-62
2024/03/18 15:02:35;;;;;;;;;;;;;;;;;;5025941;28;5036;-62
2024/03/18 15:05:00;;;;;;;;;;;;;;;;;;5025222;28;4933;-62
2024/03/18 15:07:25;;;;;;;;;;;;;;;;;;5039873;28;1438;-63
2024/03/18 15:09:51;;;;;;;;;;;;;;;;;;5030229;28;5082;-59
2024/03/18 15:12:16;;;;;;;;;;;;;;;;;;5029907;28;5055;-64
2024/03/18 15:14:41;;;;;;;;;;;;;;;;;;5053978;28;4713;-63
2024/03/18 15:17:07;;;;;;;;;;;;;;;;;;5052693;28;4974;-63
2024/03/18 15:19:33;;;;;;;;;;;;;;;;;;5051444;28;3832;-63
2024/03/18 15:21:58;;;;;;;;;;;;;;;;;;5063348;28;4456;-62
2024/03/18 15:25:10;;;;;;;;;;;;;;;;;;5063997;28;5399;-60
2024/03/18 15:30:04;;;;;;;;;;;;;;;;;;5061541;28;5142;-62
2024/03/18 15:32:30;;;;;;;;;;;;;;;;;;5055874;28;5174;-61
2024/03/18 15:34:56;;;;;;;;;;;;;;;;;;5053575;28;5091;-62
2024/03/18 15:37:21;;;;;;;;;;;;;;;;;;5057555;28;3245;-62
2024/03/18 15:39:46;;;;;;;;;;;;;;;;;;5050652;28;5081;-62
2024/03/18 15:42:12;;;;;;;;;;;;;;;;;;5058681;28;5082;-61
2024/03/18 15:44:37;;;;;;;;;;;;;;;;;;5058834;28;5090;-60
2024/03/18 15:47:02;;;;;;;;;;;;;;;;;;5054748;28;5024;-62
2024/03/18 15:49:29;;;;;;;;;;;;;;;;;;5053504;28;2632;-61
2024/03/18 15:51:54;;;;;;;;;;;;;;;;;;5057549;28;5480;-61
2024/03/18 15:54:20;;;;;;;;;;;;;;;;;;5053638;28;4969;-61
2024/03/18 15:56:46;;;;;;;;;;;;;;;;;;5056232;28;5049;-61
2024/03/18 15:59:11;;;;;;;;;;;;;;;;;;5043555;28;5112;-62
2024/03/18 16:01:37;;;;;;;;;;;;;;;;;;5061069;28;1150;-61
2024/03/18 16:04:02;;;;;;;;;;;;;;;;;;5058738;28;4475;-60
2024/03/18 16:06:28;;;;;;;;;;;;;;;;;;5058451;28;4462;-61
2024/03/18 16:08:55;;;;;;;;;;;;;;;;;;5051332;28;5105;-61
2024/03/18 16:11:20;;;;;;;;;;;;;;;;;;5059587;28;5295;-61
2024/03/18 16:13:45;;;;;;;;;;;;;;;;;;5055896;28;1362;-61
2024/03/18 16:16:11;;;;;;;;;;;;;;;;;;5063434;28;4591;-62
2024/03/18 16:18:36;;;;;;;;;;;;;;;;;;5044565;28;5136;-61
2024/03/18 16:21:02;;;;;;;;;;;;;;;;;;5053535;28;6173;-61
2024/03/18 16:23:29;;;;;;;;;;;;;;;;;;5047463;28;4488;-62
2024/03/18 16:25:54;;;;;;;;;;;;;;;;;;5048128;28;5097;-61
2024/03/18 16:28:20;;;;;;;;;;;;;;;;;;5049082;28;1307;-61
2024/03/18 16:30:45;;;;;;;;;;;;;;;;;;5049219;28;5055;-59
2024/03/18 16:33:11;;;;;;;;;;;;;;;;;;5048628;28;5125;-59
2024/03/18 16:35:36;;;;;;;;;;;;;;;;;;5049073;28;5057;-59
2024/03/18 16:38:02;;;;;;;;;;;;;;;;;;5060699;28;5142;-59
2024/03/18 16:40:28;;;;;;;;;;;;;;;;;;5052589;28;3345;-58
2024/03/18 16:42:53;;;;;;;;;;;;;;;;;;5060521;28;4853;-59
2024/03/18 16:45:19;;;;;;;;;;;;;;;;;;5057141;28;5252;-56
2024/03/18 16:47:44;;;;;;;;;;;;;;;;;;5030481;28;5167;-59
2024/03/18 16:50:10;;;;;;;;;;;;;;;;;;5053605;28;6004;-60
2024/03/18 16:52:35;;;;;;;;;;;;;;;;;;5058677;28;2301;-60
2024/03/18 16:55:02;;;;;;;;;;;;;;;;;;5056090;28;4628;-61
2024/03/18 16:57:27;;;;;;;;;;;;;;;;;;5058321;28;5025;-60
2024/03/18 16:59:52;;;;;;;;;;;;;;;;;;5052638;28;4882;-59
2024/03/18 17:02:18;;;;;;;;;;;;;;;;;;5057392;28;4519;-60
2024/03/18 17:04:43;;;;;;;;;;;;;;;;;;5060624;28;1135;-59